createdAt,value
2022-09-11T00:04:36.279Z,79.25
2022-09-11T00:09:39.228Z,78.75
2022-09-11T00:14:42.216Z,79.09
2022-09-11T00:19:46.432Z,78.84
2022-09-11T00:24:50.087Z,79.04
2022-09-11T00:29:54.288Z,79.01
2022-09-11T00:34:58.372Z,79.36
2022-09-11T00:40:01.265Z,79.59
2022-09-11T00:45:07.397Z,79.79
2022-09-11T00:50:14.988Z,80.81
2022-09-11T00:55:23.069Z,80.49
2022-09-11T01:00:25.920Z,80.66
2022-09-11T01:05:34.530Z,80.91
2022-09-11T01:10:46.389Z,80.91
2022-09-11T01:16:04.151Z,80.69
2022-09-11T01:21:32.540Z,80.93
2022-09-11T01:26:48.779Z,81.63
2022-09-11T01:32:00.436Z,82.69
2022-09-11T01:37:08.801Z,82.82
2022-09-11T01:42:16.844Z,83.59
2022-09-11T01:47:22.183Z,86.42
2022-09-11T01:52:40.985Z,85.75
2022-09-11T01:57:48.816Z,85.08
2022-09-11T02:03:00.579Z,86.81
2022-09-11T02:08:09.529Z,85.49
2022-09-11T02:13:16.954Z,84.83
2022-09-11T02:18:26.929Z,84.92
2022-09-11T02:23:29.748Z,84.99
2022-09-11T02:28:32.729Z,84.48
2022-09-11T02:33:38.647Z,84.05
2022-09-11T02:38:52.638Z,83.56
2022-09-11T02:44:05.218Z,83.63
2022-09-11T02:49:20.645Z,83.37
2022-09-11T02:54:30.289Z,82.95
2022-09-11T02:59:38.152Z,82.83
2022-09-11T03:04:43.330Z,84.17
2022-09-11T03:09:46.965Z,83.46
2022-09-11T03:14:57.025Z,84.68
2022-09-11T03:20:01.343Z,85.54
2022-09-11T03:25:06.610Z,84.69
2022-09-11T03:30:10.532Z,85.22
2022-09-11T03:35:16.377Z,84.60
2022-09-11T03:40:20.210Z,84.26
2022-09-11T03:45:23.219Z,84.47
2022-09-11T03:50:27.771Z,84.22
2022-09-11T03:55:31.670Z,83.94
2022-09-11T04:00:37.153Z,83.27
2022-09-11T04:05:42.060Z,83.40
2022-09-11T04:10:44.948Z,83.60
2022-09-11T04:15:48.052Z,83.62
2022-09-11T04:20:52.396Z,83.69
2022-09-11T04:25:56.324Z,83.41
2022-09-11T04:31:05.090Z,86.66
2022-09-11T04:36:14.213Z,85.21
2022-09-11T04:41:17.815Z,85.24
2022-09-11T04:46:20.739Z,85.71
2022-09-11T04:51:29.123Z,85.60
2022-09-11T04:56:37.797Z,86.45
2022-09-11T05:01:41.092Z,85.53
2022-09-11T05:06:48.214Z,86.12
2022-09-11T05:11:52.553Z,86.62
2022-09-11T05:16:57.399Z,86.01
2022-09-11T05:22:04.379Z,85.81
2022-09-11T05:27:09.803Z,85.41
2022-09-11T05:32:14.750Z,87.24
2022-09-11T05:37:19.851Z,85.04
2022-09-11T05:42:24.742Z,86.21
2022-09-11T05:47:30.511Z,83.95
2022-09-11T05:52:35.195Z,83.13
2022-09-11T05:57:39.087Z,82.80
2022-09-11T06:02:42.517Z,82.04
2022-09-11T06:07:46.784Z,81.96
2022-09-11T06:12:49.848Z,80.82
2022-09-11T06:17:52.850Z,79.64
2022-09-11T06:22:57.214Z,79.49
2022-09-11T06:28:02.622Z,78.27
2022-09-11T06:33:06.376Z,78.71
2022-09-11T06:38:11.923Z,80.61
2022-09-11T06:43:15.548Z,80.29
2022-09-11T06:48:20.148Z,81.42
2022-09-11T06:53:24.822Z,80.95
2022-09-11T06:58:31.007Z,80.71
2022-09-11T07:03:34.455Z,80.35
2022-09-11T07:08:42.756Z,80.02
2022-09-11T07:13:45.818Z,79.08
2022-09-11T07:18:49.994Z,78.92
2022-09-11T07:24:00.501Z,77.54
2022-09-11T07:29:09.608Z,77.27
2022-09-11T07:34:12.803Z,77.12
2022-09-11T07:39:17.003Z,78.21
2022-09-11T07:44:26.681Z,79.58
2022-09-11T07:49:29.734Z,79.76
2022-09-11T07:54:34.914Z,79.82
2022-09-11T07:59:39.410Z,79.58
2022-09-11T08:04:43.502Z,79.56
2022-09-11T08:09:56.076Z,78.01
2022-09-11T08:15:11.322Z,78.61
2022-09-11T08:20:14.681Z,77.84
2022-09-11T08:25:19.208Z,76.57
2022-09-11T08:30:22.949Z,76.70
2022-09-11T08:35:26.178Z,76.17
2022-09-11T08:40:31.835Z,75.82
2022-09-11T08:45:37.431Z,75.75
2022-09-11T08:50:44.400Z,75.08
2022-09-11T08:56:00.483Z,72.90
2022-09-11T09:01:12.309Z,70.58
2022-09-11T09:06:34.341Z,70.43
2022-09-11T09:11:49.006Z,69.00
2022-09-11T09:17:00.465Z,67.90
2022-09-11T09:22:13.385Z,65.75
2022-09-11T09:27:28.271Z,65.18
2022-09-11T09:32:38.491Z,65.08
2022-09-11T09:37:41.875Z,64.00
2022-09-11T09:43:13.076Z,61.86
2022-09-11T09:48:16.333Z,64.47
2022-09-11T09:53:29.498Z,63.11
2022-09-11T09:58:38.100Z,62.95
2022-09-11T10:03:40.944Z,63.32
2022-09-11T10:08:44.507Z,64.74
2022-09-11T10:13:57.227Z,63.23
2022-09-11T10:19:00.432Z,62.30
2022-09-11T10:24:20.567Z,62.64
2022-09-11T10:29:30.051Z,62.17
2022-09-11T10:34:37.944Z,61.31
2022-09-11T10:39:42.192Z,60.69
2022-09-11T10:44:48.446Z,60.44
2022-09-11T10:49:51.695Z,57.70
2022-09-11T10:55:03.001Z,58.37
2022-09-11T11:00:17.200Z,57.35
2022-09-11T11:05:27.150Z,57.99
2022-09-11T11:10:42.592Z,59.36
2022-09-11T11:15:58.294Z,60.02
2022-09-11T11:21:15.112Z,59.62
2022-09-11T11:26:32.377Z,60.84
2022-09-11T11:31:59.440Z,60.44
2022-09-11T11:37:07.229Z,59.99
2022-09-11T11:42:14.353Z,56.92
2022-09-11T11:47:25.348Z,57.17
2022-09-11T11:52:40.028Z,56.70
2022-09-11T11:57:48.209Z,52.89
2022-09-11T12:02:59.138Z,48.52
2022-09-11T12:08:02.529Z,51.03
2022-09-11T12:13:12.400Z,53.32
2022-09-11T12:18:25.277Z,53.69
2022-09-11T12:23:35.485Z,53.87
2022-09-11T12:28:38.792Z,50.45
2022-09-11T12:33:56.637Z,45.73
2022-09-11T12:39:04.402Z,44.56
2022-09-11T12:44:30.952Z,45.96
2022-09-11T12:49:37.688Z,47.92
2022-09-11T12:54:44.463Z,49.76
2022-09-11T12:59:54.321Z,51.57
2022-09-11T13:04:59.068Z,52.75
2022-09-11T13:10:08.051Z,53.45
2022-09-11T13:15:52.417Z,52.72
2022-09-11T13:21:02.122Z,51.75
2022-09-11T13:26:07.854Z,51.90
2022-09-11T13:31:19.388Z,53.45
2022-09-11T13:36:26.132Z,53.96
2022-09-11T13:41:31.737Z,54.81
2022-09-11T13:46:35.266Z,51.15
2022-09-11T13:51:42.123Z,52.43
2022-09-11T13:56:48.202Z,54.42
2022-09-11T14:01:56.642Z,55.59
2022-09-11T14:07:01.179Z,50.97
2022-09-11T14:12:04.681Z,51.68
2022-09-11T14:17:13.866Z,47.70
2022-09-11T14:22:25.494Z,44.34
2022-09-11T14:27:37.767Z,44.93
2022-09-11T14:32:40.864Z,47.76
2022-09-11T14:37:47.051Z,43.92
2022-09-11T14:42:50.240Z,40.98
2022-09-11T14:47:53.816Z,41.97
2022-09-11T14:52:58.172Z,41.82
2022-09-11T14:58:01.900Z,40.63
2022-09-11T15:03:04.835Z,41.51
2022-09-11T15:08:10.356Z,44.45
2022-09-11T15:13:13.324Z,41.51
2022-09-11T15:18:18.589Z,45.52
2022-09-11T15:23:23.692Z,46.86
2022-09-11T15:28:29.124Z,44.12
2022-09-11T15:33:34.018Z,44.04
2022-09-11T15:38:38.485Z,43.22
2022-09-11T15:43:41.615Z,41.09
2022-09-11T15:48:44.652Z,41.66
2022-09-11T15:53:49.247Z,42.61
2022-09-11T15:58:52.418Z,43.64
2022-09-11T16:03:56.654Z,44.68
2022-09-11T16:09:04.459Z,45.32
2022-09-11T16:14:07.883Z,44.62
2022-09-11T16:19:11.046Z,47.63
2022-09-11T16:24:15.907Z,51.45
2022-09-11T16:29:20.372Z,52.95
2022-09-11T16:34:24.842Z,53.81
2022-09-11T16:39:29.307Z,54.54
2022-09-11T16:44:33.667Z,55.98
2022-09-11T16:49:50.434Z,56.90
2022-09-11T16:55:01.272Z,57.93
2022-09-11T17:00:06.117Z,58.53
2022-09-11T17:05:10.275Z,58.62
2022-09-11T17:10:14.537Z,59.29
2022-09-11T17:15:19.387Z,59.72
2022-09-11T17:20:22.250Z,60.51
2022-09-11T17:25:26.775Z,61.25
2022-09-11T17:30:29.719Z,62.27
2022-09-11T17:35:32.743Z,62.79
2022-09-11T17:40:39.080Z,63.51
2022-09-11T17:45:42.264Z,63.83
2022-09-11T17:50:45.227Z,64.30
2022-09-11T17:55:49.376Z,64.72
2022-09-11T18:00:52.346Z,65.21
2022-09-11T18:05:55.305Z,65.67
2022-09-11T18:11:01.635Z,65.95
2022-09-11T18:16:07.549Z,66.20
2022-09-11T18:21:14.476Z,66.54
2022-09-11T18:26:24.650Z,66.75
2022-09-11T18:31:30.099Z,66.60
2022-09-11T18:36:33.692Z,66.80
2022-09-11T18:41:37.934Z,67.13
2022-09-11T18:46:41.155Z,66.94
2022-09-11T18:51:44.138Z,67.07
2022-09-11T18:56:49.153Z,66.72
2022-09-11T19:01:52.091Z,65.68
2022-09-11T19:06:55.063Z,64.63
2022-09-11T19:12:00.336Z,64.74
2022-09-11T19:17:04.325Z,65.22
2022-09-11T19:22:07.221Z,65.86
2022-09-11T19:27:11.946Z,65.67
2022-09-11T19:32:15.117Z,65.46
2022-09-11T19:37:20.045Z,65.67
2022-09-11T19:42:24.853Z,65.82
2022-09-11T19:47:28.975Z,66.06
2022-09-11T19:52:33.196Z,65.94
2022-09-11T19:57:37.529Z,66.68
2022-09-11T20:02:40.476Z,66.89
2022-09-11T20:07:43.684Z,66.98
2022-09-11T20:12:48.602Z,67.41
2022-09-11T20:17:51.472Z,67.67
2022-09-11T20:22:55.577Z,68.01
2022-09-11T20:28:01.803Z,68.18
2022-09-11T20:33:04.815Z,68.04
2022-09-11T20:38:07.661Z,68.09
2022-09-11T20:43:11.962Z,68.70
2022-09-11T20:48:14.807Z,69.23
2022-09-11T20:53:17.773Z,69.46
2022-09-11T20:58:22.155Z,69.38
2022-09-11T21:03:25.480Z,69.92
2022-09-11T21:08:28.269Z,69.99
2022-09-11T21:13:35.424Z,70.34
2022-09-11T21:18:39.416Z,70.73
2022-09-11T21:23:42.576Z,71.32
2022-09-11T21:28:46.808Z,71.63
2022-09-11T21:33:49.600Z,72.86
2022-09-11T21:38:52.647Z,73.45
2022-09-11T21:43:57.045Z,73.38
2022-09-11T21:48:59.931Z,73.48
2022-09-11T21:54:03.047Z,73.53
2022-09-11T21:59:07.491Z,74.02
2022-09-11T22:04:10.391Z,74.67
2022-09-11T22:09:13.243Z,74.82
2022-09-11T22:14:20.296Z,74.78
2022-09-11T22:19:23.363Z,74.86
2022-09-11T22:24:26.257Z,75.11
2022-09-11T22:29:30.503Z,74.41
2022-09-11T22:34:34.500Z,74.26
2022-09-11T22:39:37.465Z,74.31
2022-09-11T22:44:42.098Z,73.98
2022-09-11T22:49:44.903Z,74.03
2022-09-11T22:54:47.865Z,74.68
2022-09-11T22:59:52.152Z,75.14
2022-09-11T23:05:08.871Z,75.07
2022-09-11T23:10:12.227Z,74.99
2022-09-11T23:15:16.822Z,75.85
2022-09-11T23:20:19.838Z,75.66
2022-09-11T23:25:22.691Z,75.32
2022-09-11T23:30:26.869Z,75.28
2022-09-11T23:35:29.788Z,75.93
2022-09-11T23:40:34.016Z,76.03
2022-09-11T23:45:38.512Z,75.78
2022-09-11T23:50:41.808Z,75.70
2022-09-11T23:55:48.005Z,76.15
